Terminal Aerodrome Forecast
Issued by NWS Twin Cities, MN

Home | Current Version | Previous Version | Graphics & Text | Print | Product List | Glossary On
Versions: 1 2 3 4 5 6 7 8 9 10 11 12 13 14 15 16 17
006
FTUS43 KMPX 111136
TAFEAU
TAF
KEAU 111136Z 1112/1212 17006KT 5SM BR VCSH OVC015
     FM111330 17004KT 4SM -SNPL OVC015
     FM111500 21005KT 5SM -SHSN OVC010
     FM111800 32008KT P6SM OVC015
     FM112100 33015G25KT P6SM BKN025
     FM120100 33013G24KT P6SM FEW030
     FM120700 31008KT P6SM SKC=

USA.gov is the U.S. government's official web portal to all federal, state and local government web resources and services.